TimeEST,TemperatureF,Dew PointF,Humidity,Sea Level PressureIn,VisibilityMPH,Wind Direction,Wind SpeedMPH,Gust SpeedMPH,PrecipitationIn,Events,Conditions,WindDirDegrees,DateUTC
12:15 AM,30.2,28.4,93,29.94,6.0,Calm,Calm,-,N/A,Rain,Freezing Rain,0,2013-02-06 05:15:00
12:35 AM,32.0,30.2,93,29.93,8.0,Calm,Calm,-,N/A,Rain,Light Rain,0,2013-02-06 05:35:00
12:55 AM,30.2,30.2,100,29.93,5.0,Calm,Calm,-,N/A,Rain,Freezing Rain,0,2013-02-06 05:55:00
1:15 AM,30.2,30.2,100,29.94,4.0,Calm,Calm,-,N/A,Rain,Freezing Rain,0,2013-02-06 06:15:00
1:35 AM,30.2,30.2,100,29.93,4.0,Calm,Calm,-,0.01,Rain,Freezing Rain,0,2013-02-06 06:35:00
1:55 AM,30.2,28.4,93,29.94,5.0,WSW,3.5,-,0.01,,Overcast,250,2013-02-06 06:55:00
2:15 AM,30.2,28.4,93,29.94,5.0,Calm,Calm,-,N/A,Rain,Freezing Rain,0,2013-02-06 07:15:00
2:35 AM,30.2,28.4,93,29.94,7.0,Calm,Calm,-,N/A,,Overcast,0,2013-02-06 07:35:00
2:55 AM,30.2,30.2,100,29.94,5.0,Calm,Calm,-,N/A,Snow,Light Snow,0,2013-02-06 07:55:00
3:15 AM,30.2,30.2,100,29.93,5.0,Calm,Calm,-,N/A,Snow,Light Snow,0,2013-02-06 08:15:00
3:35 AM,30.2,28.4,93,29.93,6.0,Calm,Calm,-,N/A,,Overcast,0,2013-02-06 08:35:00
3:55 AM,30.2,28.4,93,29.93,8.0,West,3.5,-,N/A,,Mostly Cloudy,280,2013-02-06 08:55:00
4:15 AM,30.2,28.4,93,29.93,9.0,Calm,Calm,-,N/A,,Mostly Cloudy,0,2013-02-06 09:15:00
4:35 AM,30.2,28.4,93,29.94,10.0,Calm,Calm,-,N/A,,Mostly Cloudy,0,2013-02-06 09:35:00
4:55 AM,30.2,28.4,93,29.94,10.0,Calm,Calm,-,N/A,,Scattered Clouds,0,2013-02-06 09:55:00
5:15 AM,30.2,28.4,93,29.94,10.0,Calm,Calm,-,N/A,,Partly Cloudy,0,2013-02-06 10:15:00
5:35 AM,30.2,28.4,93,29.94,10.0,Calm,Calm,-,N/A,,Mostly Cloudy,0,2013-02-06 10:35:00
5:55 AM,30.2,28.4,93,29.95,10.0,Calm,Calm,-,N/A,,Overcast,0,2013-02-06 10:55:00
6:15 AM,30.2,28.4,93,29.96,10.0,WSW,3.5,-,N/A,,Overcast,240,2013-02-06 11:15:00
6:35 AM,30.2,28.4,93,29.97,10.0,WSW,3.5,-,N/A,,Overcast,250,2013-02-06 11:35:00
6:55 AM,30.2,28.4,93,29.98,10.0,Calm,Calm,-,N/A,,Overcast,0,2013-02-06 11:55:00
7:15 AM,30.2,28.4,93,29.98,10.0,West,3.5,-,N/A,,Overcast,260,2013-02-06 12:15:00
7:35 AM,30.2,28.4,93,29.99,10.0,WSW,3.5,-,N/A,,Overcast,240,2013-02-06 12:35:00
7:55 AM,30.2,28.4,93,30.00,10.0,Calm,Calm,-,N/A,,Overcast,0,2013-02-06 12:55:00
8:15 AM,30.2,28.4,93,30.00,10.0,West,3.5,-,N/A,,Overcast,260,2013-02-06 13:15:00
8:55 AM,32.0,30.2,93,30.01,10.0,Calm,Calm,-,N/A,,Overcast,0,2013-02-06 13:55:00
9:15 AM,32.0,30.2,93,30.01,10.0,WSW,4.6,-,N/A,,Overcast,250,2013-02-06 14:15:00
9:55 AM,33.8,30.2,87,30.02,10.0,West,6.9,-,N/A,,Mostly Cloudy,260,2013-02-06 14:55:00
10:35 AM,35.6,28.4,75,30.01,10.0,West,3.5,-,0.01,,Clear,270,2013-02-06 15:35:00
10:55 AM,35.6,28.4,75,30.01,10.0,West,8.1,-,0.01,,Clear,270,2013-02-06 15:55:00
11:35 AM,37.4,26.6,65,30.01,10.0,West,8.1,-,N/A,,Clear,260,2013-02-06 16:35:00
11:55 AM,37.4,24.8,60,30.00,10.0,WSW,5.8,-,N/A,,Clear,250,2013-02-06 16:55:00
12:15 PM,39.2,23.0,52,30.00,10.0,West,9.2,-,N/A,,Clear,280,2013-02-06 17:15:00
12:35 PM,39.2,23.0,52,29.99,10.0,West,8.1,-,N/A,,Clear,270,2013-02-06 17:35:00
12:55 PM,39.2,23.0,52,29.99,10.0,West,6.9,-,N/A,,Clear,260,2013-02-06 17:55:00
1:15 PM,39.2,21.2,49,29.99,10.0,WSW,5.8,17.3,N/A,,Partly Cloudy,250,2013-02-06 18:15:00
1:35 PM,39.2,21.2,49,30.00,10.0,West,8.1,-,N/A,,Scattered Clouds,270,2013-02-06 18:35:00
1:55 PM,39.2,21.2,49,30.00,10.0,West,5.8,16.1,N/A,,Scattered Clouds,260,2013-02-06 18:55:00
2:15 PM,39.2,21.2,49,30.01,10.0,WNW,10.4,17.3,N/A,,Mostly Cloudy,290,2013-02-06 19:15:00
2:35 PM,37.4,21.2,52,30.02,10.0,West,8.1,-,N/A,,Scattered Clouds,270,2013-02-06 19:35:00
2:55 PM,37.4,19.4,48,30.03,10.0,West,10.4,21.9,N/A,,Partly Cloudy,270,2013-02-06 19:55:00
3:15 PM,37.4,17.6,45,30.04,10.0,West,10.4,20.7,N/A,,Clear,270,2013-02-06 20:15:00
3:35 PM,37.4,19.4,48,30.04,10.0,West,8.1,16.1,N/A,,Clear,260,2013-02-06 20:35:00
3:55 PM,37.4,19.4,48,30.05,10.0,West,6.9,-,N/A,,Clear,260,2013-02-06 20:55:00
4:15 PM,37.4,19.4,48,30.05,10.0,West,8.1,17.3,N/A,,Clear,260,2013-02-06 21:15:00
4:35 PM,37.4,19.4,48,30.06,10.0,West,11.5,16.1,N/A,,Clear,260,2013-02-06 21:35:00
4:55 PM,35.6,19.4,52,30.08,10.0,West,5.8,-,N/A,,Clear,270,2013-02-06 21:55:00
5:15 PM,35.6,19.4,52,30.09,10.0,West,6.9,-,N/A,,Clear,270,2013-02-06 22:15:00
5:35 PM,35.6,19.4,52,30.10,10.0,WNW,3.5,-,N/A,,Clear,290,2013-02-06 22:35:00
5:55 PM,33.8,19.4,56,30.11,10.0,West,4.6,-,N/A,,Clear,260,2013-02-06 22:55:00
6:15 PM,33.8,19.4,56,30.13,10.0,West,4.6,-,N/A,,Clear,270,2013-02-06 23:15:00
6:35 PM,33.8,19.4,56,30.14,10.0,WSW,3.5,-,N/A,,Clear,250,2013-02-06 23:35:00
6:55 PM,32.0,19.4,60,30.15,10.0,West,6.9,-,N/A,,Clear,260,2013-02-06 23:55:00
7:15 PM,32.0,17.6,55,30.16,10.0,West,8.1,-,N/A,,Clear,270,2013-02-07 00:15:00
7:55 PM,33.8,14.0,44,30.18,10.0,West,6.9,-,N/A,,Clear,270,2013-02-07 00:55:00
8:15 PM,32.0,12.2,44,30.20,10.0,West,9.2,-,N/A,,Clear,270,2013-02-07 01:15:00
8:35 PM,32.0,12.2,44,30.21,10.0,West,9.2,-,N/A,,Clear,270,2013-02-07 01:35:00
8:55 PM,32.0,10.4,41,30.21,10.0,West,8.1,-,N/A,,Clear,270,2013-02-07 01:55:00
9:15 PM,32.0,10.4,41,30.22,10.0,West,6.9,-,N/A,,Clear,260,2013-02-07 02:15:00
9:35 PM,32.0,10.4,41,30.23,10.0,West,9.2,-,N/A,,Clear,260,2013-02-07 02:35:00
10:15 PM,32.0,8.6,38,30.26,10.0,West,6.9,-,N/A,,Clear,260,2013-02-07 03:15:00
10:35 PM,32.0,8.6,38,30.28,10.0,West,8.1,-,N/A,,Clear,260,2013-02-07 03:35:00
10:55 PM,30.2,8.6,40,30.28,10.0,West,8.1,-,N/A,,Clear,280,2013-02-07 03:55:00
11:15 PM,30.2,6.8,37,30.28,10.0,West,8.1,-,N/A,,Clear,270,2013-02-07 04:15:00
11:35 PM,30.2,5.0,34,30.28,10.0,West,8.1,-,N/A,,Clear,270,2013-02-07 04:35:00
11:55 PM,30.2,5.0,34,30.29,10.0,West,6.9,-,N/A,,Clear,270,2013-02-07 04:55:00